sensor_id;sensor_type;location;lat;lon;timestamp;P1;durP1;ratioP1;P2;durP2;ratioP2
21392;SDS011;10857;52.228;21.026;2023-01-28T00:01:39;63.20;;;28.27;;
21392;SDS011;10857;52.228;21.026;2023-01-28T00:04:06;64.53;;;27.13;;
21392;SDS011;10857;52.228;21.026;2023-01-28T00:06:34;67.20;;;27.53;;
21392;SDS011;10857;52.228;21.026;2023-01-28T00:09:01;65.33;;;28.13;;
21392;SDS011;10857;52.228;21.026;2023-01-28T00:11:28;62.33;;;26.40;;
21392;SDS011;10857;52.228;21.026;2023-01-28T00:13:56;65.20;;;27.23;;
21392;SDS011;10857;52.228;21.026;2023-01-28T00:16:23;60.07;;;27.13;;
21392;SDS011;10857;52.228;21.026;2023-01-28T00:18:55;66.50;;;27.03;;
21392;SDS011;10857;52.228;21.026;2023-01-28T00:21:25;64.73;;;27.37;;
21392;SDS011;10857;52.228;21.026;2023-01-28T00:23:53;62.53;;;27.13;;
21392;SDS011;10857;52.228;21.026;2023-01-28T00:26:21;68.63;;;28.13;;
21392;SDS011;10857;52.228;21.026;2023-01-28T00:28:52;71.00;;;28.83;;
21392;SDS011;10857;52.228;21.026;2023-01-28T00:31:23;63.80;;;27.73;;
21392;SDS011;10857;52.228;21.026;2023-01-28T00:33:54;65.27;;;27.83;;
21392;SDS011;10857;52.228;21.026;2023-01-28T00:36:22;68.33;;;27.67;;
21392;SDS011;10857;52.228;21.026;2023-01-28T00:38:51;68.00;;;28.97;;
21392;SDS011;10857;52.228;21.026;2023-01-28T00:41:21;65.47;;;28.60;;
21392;SDS011;10857;52.228;21.026;2023-01-28T00:43:49;67.23;;;27.53;;
21392;SDS011;10857;52.228;21.026;2023-01-28T00:46:18;64.33;;;28.70;;
21392;SDS011;10857;52.228;21.026;2023-01-28T00:48:46;62.53;;;27.27;;
21392;SDS011;10857;52.228;21.026;2023-01-28T00:51:17;66.70;;;27.60;;
21392;SDS011;10857;52.228;21.026;2023-01-28T00:53:47;63.07;;;26.93;;
21392;SDS011;10857;52.228;21.026;2023-01-28T00:56:15;66.43;;;27.23;;
21392;SDS011;10857;52.228;21.026;2023-01-28T00:58:44;65.27;;;28.00;;
21392;SDS011;10857;52.228;21.026;2023-01-28T01:01:12;68.40;;;27.37;;
21392;SDS011;10857;52.228;21.026;2023-01-28T01:03:41;62.13;;;26.40;;
21392;SDS011;10857;52.228;21.026;2023-01-28T01:06:14;66.50;;;26.97;;
21392;SDS011;10857;52.228;21.026;2023-01-28T01:08:42;66.30;;;28.47;;
21392;SDS011;10857;52.228;21.026;2023-01-28T01:11:17;66.53;;;27.50;;
21392;SDS011;10857;52.228;21.026;2023-01-28T01:13:57;67.07;;;27.97;;
21392;SDS011;10857;52.228;21.026;2023-01-28T01:16:39;72.17;;;27.77;;
21392;SDS011;10857;52.228;21.026;2023-01-28T01:19:07;62.63;;;27.00;;
21392;SDS011;10857;52.228;21.026;2023-01-28T01:21:37;60.93;;;26.17;;
21392;SDS011;10857;52.228;21.026;2023-01-28T01:24:05;64.70;;;28.10;;
21392;SDS011;10857;52.228;21.026;2023-01-28T01:26:33;64.40;;;27.10;;
21392;SDS011;10857;52.228;21.026;2023-01-28T01:29:00;63.80;;;27.20;;
21392;SDS011;10857;52.228;21.026;2023-01-28T01:31:28;65.43;;;26.67;;
21392;SDS011;10857;52.228;21.026;2023-01-28T01:33:58;65.10;;;27.47;;
21392;SDS011;10857;52.228;21.026;2023-01-28T01:36:26;61.97;;;26.47;;
21392;SDS011;10857;52.228;21.026;2023-01-28T01:38:53;65.90;;;27.43;;
21392;SDS011;10857;52.228;21.026;2023-01-28T01:41:23;63.10;;;27.47;;
21392;SDS011;10857;52.228;21.026;2023-01-28T01:44:00;66.67;;;27.60;;
21392;SDS011;10857;52.228;21.026;2023-01-28T01:49:12;62.67;;;27.80;;
21392;SDS011;10857;52.228;21.026;2023-01-28T01:51:41;60.30;;;26.43;;
21392;SDS011;10857;52.228;21.026;2023-01-28T01:54:10;60.00;;;25.93;;
21392;SDS011;10857;52.228;21.026;2023-01-28T01:56:57;62.23;;;26.00;;
21392;SDS011;10857;52.228;21.026;2023-01-28T01:59:29;65.90;;;27.50;;
21392;SDS011;10857;52.228;21.026;2023-01-28T02:01:59;58.37;;;26.27;;
21392;SDS011;10857;52.228;21.026;2023-01-28T02:04:29;57.37;;;26.40;;
21392;SDS011;10857;52.228;21.026;2023-01-28T02:06:58;61.17;;;26.33;;
21392;SDS011;10857;52.228;21.026;2023-01-28T02:09:27;62.43;;;26.70;;
21392;SDS011;10857;52.228;21.026;2023-01-28T02:14:43;58.90;;;25.70;;
21392;SDS011;10857;52.228;21.026;2023-01-28T02:17:14;61.43;;;25.50;;
21392;SDS011;10857;52.228;21.026;2023-01-28T02:19:47;63.03;;;26.53;;
21392;SDS011;10857;52.228;21.026;2023-01-28T02:22:21;61.93;;;25.40;;
21392;SDS011;10857;52.228;21.026;2023-01-28T02:25:15;56.03;;;25.23;;
21392;SDS011;10857;52.228;21.026;2023-01-28T02:31:13;58.73;;;25.57;;
21392;SDS011;10857;52.228;21.026;2023-01-28T02:36:31;56.53;;;25.07;;
21392;SDS011;10857;52.228;21.026;2023-01-28T02:39:02;56.20;;;25.20;;
21392;SDS011;10857;52.228;21.026;2023-01-28T02:41:41;56.20;;;25.17;;
21392;SDS011;10857;52.228;21.026;2023-01-28T02:44:11;58.40;;;25.10;;
21392;SDS011;10857;52.228;21.026;2023-01-28T02:46:39;52.17;;;24.07;;
21392;SDS011;10857;52.228;21.026;2023-01-28T02:59:56;49.63;;;23.77;;
21392;SDS011;10857;52.228;21.026;2023-01-28T03:02:35;51.97;;;23.50;;
21392;SDS011;10857;52.228;21.026;2023-01-28T03:05:13;49.57;;;22.73;;
21392;SDS011;10857;52.228;21.026;2023-01-28T03:07:46;50.43;;;22.70;;
21392;SDS011;10857;52.228;21.026;2023-01-28T03:10:16;46.77;;;22.70;;
21392;SDS011;10857;52.228;21.026;2023-01-28T03:12:46;49.50;;;23.30;;
21392;SDS011;10857;52.228;21.026;2023-01-28T03:15:40;48.97;;;23.43;;
21392;SDS011;10857;52.228;21.026;2023-01-28T03:18:42;48.40;;;22.03;;
21392;SDS011;10857;52.228;21.026;2023-01-28T03:21:31;44.80;;;21.80;;
21392;SDS011;10857;52.228;21.026;2023-01-28T03:24:20;49.97;;;21.83;;
21392;SDS011;10857;52.228;21.026;2023-01-28T03:27:13;49.33;;;22.33;;
21392;SDS011;10857;52.228;21.026;2023-01-28T03:30:13;42.50;;;21.13;;
21392;SDS011;10857;52.228;21.026;2023-01-28T03:33:06;46.53;;;21.40;;
21392;SDS011;10857;52.228;21.026;2023-01-28T03:35:52;44.47;;;21.30;;
21392;SDS011;10857;52.228;21.026;2023-01-28T03:38:40;44.57;;;20.00;;
21392;SDS011;10857;52.228;21.026;2023-01-28T03:41:11;39.53;;;18.83;;
21392;SDS011;10857;52.228;21.026;2023-01-28T03:43:41;45.60;;;20.63;;
21392;SDS011;10857;52.228;21.026;2023-01-28T03:46:11;39.73;;;19.20;;
21392;SDS011;10857;52.228;21.026;2023-01-28T03:48:41;43.03;;;19.93;;
21392;SDS011;10857;52.228;21.026;2023-01-28T03:51:12;40.13;;;19.60;;
21392;SDS011;10857;52.228;21.026;2023-01-28T03:53:41;40.17;;;19.53;;
21392;SDS011;10857;52.228;21.026;2023-01-28T03:56:10;39.60;;;19.10;;
21392;SDS011;10857;52.228;21.026;2023-01-28T03:58:51;41.43;;;18.87;;
21392;SDS011;10857;52.228;21.026;2023-01-28T04:01:23;40.27;;;19.47;;
21392;SDS011;10857;52.228;21.026;2023-01-28T04:03:59;38.97;;;18.37;;
21392;SDS011;10857;52.228;21.026;2023-01-28T04:06:27;41.40;;;19.27;;
21392;SDS011;10857;52.228;21.026;2023-01-28T04:09:03;40.10;;;18.77;;
21392;SDS011;10857;52.228;21.026;2023-01-28T04:11:50;42.90;;;20.10;;
21392;SDS011;10857;52.228;21.026;2023-01-28T04:14:28;39.87;;;19.20;;
21392;SDS011;10857;52.228;21.026;2023-01-28T04:17:19;42.30;;;19.70;;
21392;SDS011;10857;52.228;21.026;2023-01-28T04:19:48;38.40;;;18.80;;
21392;SDS011;10857;52.228;21.026;2023-01-28T04:22:17;40.70;;;19.67;;
21392;SDS011;10857;52.228;21.026;2023-01-28T04:24:46;39.00;;;19.43;;
21392;SDS011;10857;52.228;21.026;2023-01-28T04:27:16;39.90;;;18.43;;
21392;SDS011;10857;52.228;21.026;2023-01-28T04:29:48;37.27;;;17.97;;
21392;SDS011;10857;52.228;21.026;2023-01-28T04:32:37;40.83;;;19.23;;
21392;SDS011;10857;52.228;21.026;2023-01-28T04:35:27;37.47;;;17.70;;
21392;SDS011;10857;52.228;21.026;2023-01-28T04:38:18;40.70;;;19.00;;
21392;SDS011;10857;52.228;21.026;2023-01-28T04:40:54;39.47;;;18.83;;
21392;SDS011;10857;52.228;21.026;2023-01-28T04:43:26;37.83;;;20.95;;
21392;SDS011;10857;52.228;21.026;2023-01-28T04:46:14;39.20;;;18.77;;
21392;SDS011;10857;52.228;21.026;2023-01-28T04:49:14;37.13;;;18.17;;
21392;SDS011;10857;52.228;21.026;2023-01-28T04:52:11;39.00;;;18.43;;
21392;SDS011;10857;52.228;21.026;2023-01-28T04:55:06;40.83;;;18.03;;
21392;SDS011;10857;52.228;21.026;2023-01-28T04:57:38;36.97;;;18.17;;
21392;SDS011;10857;52.228;21.026;2023-01-28T05:00:07;37.23;;;18.23;;
21392;SDS011;10857;52.228;21.026;2023-01-28T05:02:38;37.70;;;18.67;;
21392;SDS011;10857;52.228;21.026;2023-01-28T05:05:06;38.07;;;18.60;;
21392;SDS011;10857;52.228;21.026;2023-01-28T05:08:11;36.73;;;18.00;;
21392;SDS011;10857;52.228;21.026;2023-01-28T05:10:39;40.30;;;18.97;;
21392;SDS011;10857;52.228;21.026;2023-01-28T05:13:08;37.27;;;18.50;;
21392;SDS011;10857;52.228;21.026;2023-01-28T05:15:37;39.07;;;18.07;;
21392;SDS011;10857;52.228;21.026;2023-01-28T05:18:04;39.30;;;18.40;;
21392;SDS011;10857;52.228;21.026;2023-01-28T05:20:37;43.03;;;19.87;;
21392;SDS011;10857;52.228;21.026;2023-01-28T05:23:05;42.77;;;20.07;;
21392;SDS011;10857;52.228;21.026;2023-01-28T05:25:47;39.53;;;18.67;;
21392;SDS011;10857;52.228;21.026;2023-01-28T05:28:15;38.47;;;18.43;;
21392;SDS011;10857;52.228;21.026;2023-01-28T05:30:42;37.63;;;18.33;;
21392;SDS011;10857;52.228;21.026;2023-01-28T05:33:10;39.80;;;18.40;;
21392;SDS011;10857;52.228;21.026;2023-01-28T05:35:40;39.70;;;19.27;;
21392;SDS011;10857;52.228;21.026;2023-01-28T05:38:08;37.90;;;18.23;;
21392;SDS011;10857;52.228;21.026;2023-01-28T05:40:36;37.87;;;17.97;;
21392;SDS011;10857;52.228;21.026;2023-01-28T05:43:03;39.33;;;19.33;;
21392;SDS011;10857;52.228;21.026;2023-01-28T05:45:36;40.77;;;19.23;;
21392;SDS011;10857;52.228;21.026;2023-01-28T05:48:07;43.73;;;19.27;;
21392;SDS011;10857;52.228;21.026;2023-01-28T05:51:08;39.90;;;18.80;;
21392;SDS011;10857;52.228;21.026;2023-01-28T05:53:38;39.70;;;18.43;;
21392;SDS011;10857;52.228;21.026;2023-01-28T05:56:06;39.47;;;18.80;;
21392;SDS011;10857;52.228;21.026;2023-01-28T05:58:35;40.27;;;18.33;;
21392;SDS011;10857;52.228;21.026;2023-01-28T06:01:03;39.37;;;18.77;;
21392;SDS011;10857;52.228;21.026;2023-01-28T06:03:41;38.63;;;18.87;;
21392;SDS011;10857;52.228;21.026;2023-01-28T06:06:08;43.33;;;18.73;;
21392;SDS011;10857;52.228;21.026;2023-01-28T06:08:35;41.27;;;18.93;;
21392;SDS011;10857;52.228;21.026;2023-01-28T06:11:05;47.70;;;21.43;;
21392;SDS011;10857;52.228;21.026;2023-01-28T06:13:33;38.47;;;18.27;;
21392;SDS011;10857;52.228;21.026;2023-01-28T06:16:36;42.70;;;18.80;;
21392;SDS011;10857;52.228;21.026;2023-01-28T06:19:24;40.83;;;18.37;;
21392;SDS011;10857;52.228;21.026;2023-01-28T06:21:51;39.70;;;18.50;;
21392;SDS011;10857;52.228;21.026;2023-01-28T06:24:28;42.87;;;19.10;;
21392;SDS011;10857;52.228;21.026;2023-01-28T06:27:09;43.20;;;19.37;;
21392;SDS011;10857;52.228;21.026;2023-01-28T06:29:37;42.70;;;19.43;;
21392;SDS011;10857;52.228;21.026;2023-01-28T06:32:04;49.23;;;19.33;;
21392;SDS011;10857;52.228;21.026;2023-01-28T06:34:33;43.87;;;18.80;;
21392;SDS011;10857;52.228;21.026;2023-01-28T06:37:03;48.17;;;20.63;;
21392;SDS011;10857;52.228;21.026;2023-01-28T06:39:33;49.03;;;22.43;;
21392;SDS011;10857;52.228;21.026;2023-01-28T06:42:01;50.27;;;20.80;;
21392;SDS011;10857;52.228;21.026;2023-01-28T06:44:30;49.10;;;19.97;;
21392;SDS011;10857;52.228;21.026;2023-01-28T06:46:57;49.33;;;21.30;;
21392;SDS011;10857;52.228;21.026;2023-01-28T06:49:26;47.33;;;20.57;;
21392;SDS011;10857;52.228;21.026;2023-01-28T06:51:53;48.03;;;20.07;;
21392;SDS011;10857;52.228;21.026;2023-01-28T06:54:22;47.13;;;20.93;;
21392;SDS011;10857;52.228;21.026;2023-01-28T06:56:52;50.53;;;21.27;;
21392;SDS011;10857;52.228;21.026;2023-01-28T06:59:19;51.40;;;20.73;;
21392;SDS011;10857;52.228;21.026;2023-01-28T07:01:47;47.27;;;19.57;;
21392;SDS011;10857;52.228;21.026;2023-01-28T07:04:14;45.60;;;19.37;;
21392;SDS011;10857;52.228;21.026;2023-01-28T07:06:42;43.53;;;19.63;;
21392;SDS011;10857;52.228;21.026;2023-01-28T07:09:09;40.63;;;18.90;;
21392;SDS011;10857;52.228;21.026;2023-01-28T07:11:38;44.17;;;19.43;;
21392;SDS011;10857;52.228;21.026;2023-01-28T07:14:07;41.27;;;18.87;;
21392;SDS011;10857;52.228;21.026;2023-01-28T07:16:35;44.70;;;19.73;;
21392;SDS011;10857;52.228;21.026;2023-01-28T07:19:04;42.77;;;19.27;;
21392;SDS011;10857;52.228;21.026;2023-01-28T07:21:31;42.17;;;18.83;;
21392;SDS011;10857;52.228;21.026;2023-01-28T07:23:59;42.10;;;19.33;;
21392;SDS011;10857;52.228;21.026;2023-01-28T07:26:28;41.03;;;18.67;;
21392;SDS011;10857;52.228;21.026;2023-01-28T07:28:55;40.80;;;19.27;;
21392;SDS011;10857;52.228;21.026;2023-01-28T07:31:22;36.57;;;17.57;;
21392;SDS011;10857;52.228;21.026;2023-01-28T07:33:50;41.37;;;18.37;;
21392;SDS011;10857;52.228;21.026;2023-01-28T07:36:17;42.17;;;18.43;;
21392;SDS011;10857;52.228;21.026;2023-01-28T07:38:44;40.40;;;17.50;;
21392;SDS011;10857;52.228;21.026;2023-01-28T07:41:12;36.90;;;16.70;;
21392;SDS011;10857;52.228;21.026;2023-01-28T07:43:39;37.47;;;17.63;;
21392;SDS011;10857;52.228;21.026;2023-01-28T07:46:06;38.63;;;15.93;;
21392;SDS011;10857;52.228;21.026;2023-01-28T07:48:34;37.60;;;17.60;;
21392;SDS011;10857;52.228;21.026;2023-01-28T07:51:01;45.43;;;21.33;;
21392;SDS011;10857;52.228;21.026;2023-01-28T07:53:28;39.00;;;17.53;;
21392;SDS011;10857;52.228;21.026;2023-01-28T07:55:59;35.23;;;16.87;;
21392;SDS011;10857;52.228;21.026;2023-01-28T07:58:27;37.93;;;17.47;;
21392;SDS011;10857;52.228;21.026;2023-01-28T08:00:55;34.40;;;16.33;;
21392;SDS011;10857;52.228;21.026;2023-01-28T08:03:24;36.07;;;16.67;;
21392;SDS011;10857;52.228;21.026;2023-01-28T08:05:53;36.80;;;16.60;;
21392;SDS011;10857;52.228;21.026;2023-01-28T08:08:21;34.03;;;16.20;;
21392;SDS011;10857;52.228;21.026;2023-01-28T08:10:49;31.97;;;15.63;;
21392;SDS011;10857;52.228;21.026;2023-01-28T08:13:16;33.37;;;16.53;;
21392;SDS011;10857;52.228;21.026;2023-01-28T08:15:45;32.10;;;15.63;;
21392;SDS011;10857;52.228;21.026;2023-01-28T08:18:13;35.17;;;16.63;;
21392;SDS011;10857;52.228;21.026;2023-01-28T08:20:41;34.33;;;16.73;;
21392;SDS011;10857;52.228;21.026;2023-01-28T08:25:38;31.60;;;15.90;;
21392;SDS011;10857;52.228;21.026;2023-01-28T08:28:06;32.57;;;16.10;;
21392;SDS011;10857;52.228;21.026;2023-01-28T08:30:34;34.07;;;16.33;;
21392;SDS011;10857;52.228;21.026;2023-01-28T08:33:04;35.63;;;16.60;;
21392;SDS011;10857;52.228;21.026;2023-01-28T08:35:31;33.03;;;16.33;;
21392;SDS011;10857;52.228;21.026;2023-01-28T08:37:59;33.97;;;16.03;;
21392;SDS011;10857;52.228;21.026;2023-01-28T08:40:27;35.20;;;17.17;;
21392;SDS011;10857;52.228;21.026;2023-01-28T08:42:57;32.03;;;15.87;;
21392;SDS011;10857;52.228;21.026;2023-01-28T08:45:25;35.27;;;17.20;;
21392;SDS011;10857;52.228;21.026;2023-01-28T08:47:57;35.50;;;16.53;;
21392;SDS011;10857;52.228;21.026;2023-01-28T08:50:26;33.50;;;17.13;;
21392;SDS011;10857;52.228;21.026;2023-01-28T08:52:55;34.30;;;16.90;;
21392;SDS011;10857;52.228;21.026;2023-01-28T08:55:24;33.47;;;16.93;;
21392;SDS011;10857;52.228;21.026;2023-01-28T08:57:57;34.43;;;17.43;;
21392;SDS011;10857;52.228;21.026;2023-01-28T09:00:32;33.90;;;17.00;;
21392;SDS011;10857;52.228;21.026;2023-01-28T09:03:00;35.80;;;17.67;;
21392;SDS011;10857;52.228;21.026;2023-01-28T09:05:32;32.80;;;16.03;;
21392;SDS011;10857;52.228;21.026;2023-01-28T09:08:05;40.00;;;20.57;;
21392;SDS011;10857;52.228;21.026;2023-01-28T09:10:36;45.23;;;22.90;;
21392;SDS011;10857;52.228;21.026;2023-01-28T09:13:05;39.87;;;19.13;;
21392;SDS011;10857;52.228;21.026;2023-01-28T09:15:33;33.73;;;16.37;;
21392;SDS011;10857;52.228;21.026;2023-01-28T09:18:00;32.97;;;16.50;;
21392;SDS011;10857;52.228;21.026;2023-01-28T09:20:29;29.20;;;15.83;;
21392;SDS011;10857;52.228;21.026;2023-01-28T09:23:01;32.17;;;16.03;;
21392;SDS011;10857;52.228;21.026;2023-01-28T09:25:29;31.20;;;15.93;;
21392;SDS011;10857;52.228;21.026;2023-01-28T09:27:56;31.87;;;16.00;;
21392;SDS011;10857;52.228;21.026;2023-01-28T09:30:24;33.33;;;16.33;;
21392;SDS011;10857;52.228;21.026;2023-01-28T09:32:53;32.20;;;16.20;;
21392;SDS011;10857;52.228;21.026;2023-01-28T09:35:21;29.60;;;16.17;;
21392;SDS011;10857;52.228;21.026;2023-01-28T09:37:48;30.97;;;15.97;;
21392;SDS011;10857;52.228;21.026;2023-01-28T09:40:35;33.67;;;16.47;;
21392;SDS011;10857;52.228;21.026;2023-01-28T09:45:45;30.60;;;16.97;;
21392;SDS011;10857;52.228;21.026;2023-01-28T09:48:15;32.03;;;16.73;;
21392;SDS011;10857;52.228;21.026;2023-01-28T09:50:44;40.33;;;18.13;;
21392;SDS011;10857;52.228;21.026;2023-01-28T09:53:22;40.07;;;18.47;;
21392;SDS011;10857;52.228;21.026;2023-01-28T09:56:10;32.50;;;16.70;;
21392;SDS011;10857;52.228;21.026;2023-01-28T09:58:40;34.30;;;16.80;;
21392;SDS011;10857;52.228;21.026;2023-01-28T10:01:32;33.13;;;16.83;;
21392;SDS011;10857;52.228;21.026;2023-01-28T10:04:12;32.87;;;16.23;;
21392;SDS011;10857;52.228;21.026;2023-01-28T10:17:28;29.07;;;14.90;;
21392;SDS011;10857;52.228;21.026;2023-01-28T10:20:13;29.67;;;15.40;;
21392;SDS011;10857;52.228;21.026;2023-01-28T10:22:45;28.87;;;15.20;;
21392;SDS011;10857;52.228;21.026;2023-01-28T10:25:20;28.47;;;15.37;;
21392;SDS011;10857;52.228;21.026;2023-01-28T10:27:48;28.77;;;15.63;;
21392;SDS011;10857;52.228;21.026;2023-01-28T10:30:20;32.23;;;16.23;;
21392;SDS011;10857;52.228;21.026;2023-01-28T10:32:52;34.13;;;17.17;;
21392;SDS011;10857;52.228;21.026;2023-01-28T10:35:20;31.00;;;16.57;;
21392;SDS011;10857;52.228;21.026;2023-01-28T10:37:47;31.97;;;17.33;;
21392;SDS011;10857;52.228;21.026;2023-01-28T10:40:20;32.10;;;16.60;;
21392;SDS011;10857;52.228;21.026;2023-01-28T10:42:47;31.53;;;16.57;;
21392;SDS011;10857;52.228;21.026;2023-01-28T10:45:35;29.07;;;15.80;;
21392;SDS011;10857;52.228;21.026;2023-01-28T10:48:07;32.30;;;17.00;;
21392;SDS011;10857;52.228;21.026;2023-01-28T10:50:48;30.90;;;16.03;;
21392;SDS011;10857;52.228;21.026;2023-01-28T10:53:16;32.37;;;16.67;;
21392;SDS011;10857;52.228;21.026;2023-01-28T10:55:54;32.43;;;16.70;;
21392;SDS011;10857;52.228;21.026;2023-01-28T10:58:24;29.90;;;16.13;;
21392;SDS011;10857;52.228;21.026;2023-01-28T11:01:04;32.37;;;17.30;;
21392;SDS011;10857;52.228;21.026;2023-01-28T11:03:34;34.97;;;16.40;;
21392;SDS011;10857;52.228;21.026;2023-01-28T11:06:02;32.33;;;16.10;;
21392;SDS011;10857;52.228;21.026;2023-01-28T11:08:30;30.40;;;15.83;;
21392;SDS011;10857;52.228;21.026;2023-01-28T11:10:59;30.37;;;16.23;;
21392;SDS011;10857;52.228;21.026;2023-01-28T11:13:27;32.53;;;16.43;;
21392;SDS011;10857;52.228;21.026;2023-01-28T11:16:02;32.17;;;16.67;;
21392;SDS011;10857;52.228;21.026;2023-01-28T11:18:40;30.37;;;16.40;;
21392;SDS011;10857;52.228;21.026;2023-01-28T11:21:15;33.87;;;16.50;;
21392;SDS011;10857;52.228;21.026;2023-01-28T11:23:57;34.07;;;16.97;;
21392;SDS011;10857;52.228;21.026;2023-01-28T11:26:27;31.27;;;16.23;;
21392;SDS011;10857;52.228;21.026;2023-01-28T11:28:55;28.20;;;15.23;;
21392;SDS011;10857;52.228;21.026;2023-01-28T11:31:23;34.27;;;17.17;;
21392;SDS011;10857;52.228;21.026;2023-01-28T11:33:56;29.53;;;15.47;;
21392;SDS011;10857;52.228;21.026;2023-01-28T11:36:30;30.03;;;15.20;;
21392;SDS011;10857;52.228;21.026;2023-01-28T11:39:02;28.47;;;16.13;;
21392;SDS011;10857;52.228;21.026;2023-01-28T11:41:34;32.53;;;16.60;;
21392;SDS011;10857;52.228;21.026;2023-01-28T11:49:19;28.97;;;15.53;;
21392;SDS011;10857;52.228;21.026;2023-01-28T11:51:52;32.30;;;15.53;;
21392;SDS011;10857;52.228;21.026;2023-01-28T11:54:44;34.07;;;16.20;;
21392;SDS011;10857;52.228;21.026;2023-01-28T12:07:36;31.63;;;16.53;;
21392;SDS011;10857;52.228;21.026;2023-01-28T12:10:33;30.17;;;15.67;;
21392;SDS011;10857;52.228;21.026;2023-01-28T12:18:42;31.70;;;16.03;;
21392;SDS011;10857;52.228;21.026;2023-01-28T12:21:16;31.70;;;16.47;;
21392;SDS011;10857;52.228;21.026;2023-01-28T12:29:04;37.03;;;18.20;;
21392;SDS011;10857;52.228;21.026;2023-01-28T12:36:55;31.47;;;16.47;;
21392;SDS011;10857;52.228;21.026;2023-01-28T12:39:27;31.03;;;16.53;;
21392;SDS011;10857;52.228;21.026;2023-01-28T12:42:03;32.13;;;16.43;;
21392;SDS011;10857;52.228;21.026;2023-01-28T12:44:35;32.13;;;17.30;;
21392;SDS011;10857;52.228;21.026;2023-01-28T12:47:08;30.70;;;16.57;;
21392;SDS011;10857;52.228;21.026;2023-01-28T12:57:00;26.87;;;15.17;;
21392;SDS011;10857;52.228;21.026;2023-01-28T12:59:44;29.00;;;18.58;;
21392;SDS011;10857;52.228;21.026;2023-01-28T13:02:28;29.73;;;16.50;;
21392;SDS011;10857;52.228;21.026;2023-01-28T13:07:36;29.67;;;15.00;;
21392;SDS011;10857;52.228;21.026;2023-01-28T13:12:43;28.30;;;14.87;;
21392;SDS011;10857;52.228;21.026;2023-01-28T13:15:12;29.93;;;15.80;;
21392;SDS011;10857;52.228;21.026;2023-01-28T13:18:02;31.27;;;15.77;;
21392;SDS011;10857;52.228;21.026;2023-01-28T13:20:30;32.10;;;16.23;;
21392;SDS011;10857;52.228;21.026;2023-01-28T13:23:19;33.83;;;17.90;;
21392;SDS011;10857;52.228;21.026;2023-01-28T13:25:48;36.10;;;17.47;;
21392;SDS011;10857;52.228;21.026;2023-01-28T13:28:29;31.70;;;17.23;;
21392;SDS011;10857;52.228;21.026;2023-01-28T13:31:04;35.63;;;17.63;;
21392;SDS011;10857;52.228;21.026;2023-01-28T13:33:36;35.97;;;17.17;;
21392;SDS011;10857;52.228;21.026;2023-01-28T13:38:34;34.17;;;17.73;;
21392;SDS011;10857;52.228;21.026;2023-01-28T13:41:02;35.93;;;17.97;;
21392;SDS011;10857;52.228;21.026;2023-01-28T13:46:01;32.63;;;17.27;;
21392;SDS011;10857;52.228;21.026;2023-01-28T13:48:30;33.90;;;16.83;;
21392;SDS011;10857;52.228;21.026;2023-01-28T13:50:58;33.77;;;18.30;;
21392;SDS011;10857;52.228;21.026;2023-01-28T13:53:40;31.83;;;16.80;;
21392;SDS011;10857;52.228;21.026;2023-01-28T13:56:24;34.63;;;17.40;;
21392;SDS011;10857;52.228;21.026;2023-01-28T14:01:47;34.10;;;18.07;;
21392;SDS011;10857;52.228;21.026;2023-01-28T14:14:38;33.50;;;17.37;;
21392;SDS011;10857;52.228;21.026;2023-01-28T14:17:25;37.30;;;17.30;;
21392;SDS011;10857;52.228;21.026;2023-01-28T14:19:57;31.97;;;16.17;;
21392;SDS011;10857;52.228;21.026;2023-01-28T14:22:26;30.70;;;16.57;;
21392;SDS011;10857;52.228;21.026;2023-01-28T14:24:53;33.77;;;16.83;;
21392;SDS011;10857;52.228;21.026;2023-01-28T14:27:34;32.70;;;16.77;;
21392;SDS011;10857;52.228;21.026;2023-01-28T14:32:43;32.83;;;16.00;;
21392;SDS011;10857;52.228;21.026;2023-01-28T14:35:15;33.97;;;17.60;;
21392;SDS011;10857;52.228;21.026;2023-01-28T14:37:45;33.50;;;17.07;;
21392;SDS011;10857;52.228;21.026;2023-01-28T14:40:15;34.23;;;17.13;;
21392;SDS011;10857;52.228;21.026;2023-01-28T14:42:49;31.70;;;16.90;;
21392;SDS011;10857;52.228;21.026;2023-01-28T14:45:54;33.23;;;16.40;;
21392;SDS011;10857;52.228;21.026;2023-01-28T14:48:29;33.37;;;17.30;;
21392;SDS011;10857;52.228;21.026;2023-01-28T14:54:06;33.43;;;17.77;;
21392;SDS011;10857;52.228;21.026;2023-01-28T14:56:43;35.03;;;18.20;;
21392;SDS011;10857;52.228;21.026;2023-01-28T14:59:19;34.97;;;17.53;;
21392;SDS011;10857;52.228;21.026;2023-01-28T15:01:48;34.83;;;17.70;;
21392;SDS011;10857;52.228;21.026;2023-01-28T15:04:28;35.27;;;18.17;;
21392;SDS011;10857;52.228;21.026;2023-01-28T15:07:18;32.07;;;16.70;;
21392;SDS011;10857;52.228;21.026;2023-01-28T15:09:46;9.43;;;5.87;;
21392;SDS011;10857;52.228;21.026;2023-01-28T15:12:19;7.07;;;4.30;;
21392;SDS011;10857;52.228;21.026;2023-01-28T15:14:47;8.43;;;5.00;;
21392;SDS011;10857;52.228;21.026;2023-01-28T15:17:18;6.87;;;4.53;;
21392;SDS011;10857;52.228;21.026;2023-01-28T15:19:49;10.00;;;6.20;;
21392;SDS011;10857;52.228;21.026;2023-01-28T15:22:25;14.00;;;8.17;;
21392;SDS011;10857;52.228;21.026;2023-01-28T15:24:54;31.60;;;15.87;;
21392;SDS011;10857;52.228;21.026;2023-01-28T15:27:28;35.43;;;18.43;;
21392;SDS011;10857;52.228;21.026;2023-01-28T15:29:57;44.03;;;21.73;;
21392;SDS011;10857;52.228;21.026;2023-01-28T15:32:28;39.23;;;20.47;;
21392;SDS011;10857;52.228;21.026;2023-01-28T15:35:12;42.43;;;20.27;;
21392;SDS011;10857;52.228;21.026;2023-01-28T15:37:39;40.60;;;20.10;;
21392;SDS011;10857;52.228;21.026;2023-01-28T15:40:16;39.73;;;20.63;;
21392;SDS011;10857;52.228;21.026;2023-01-28T15:42:44;37.47;;;19.57;;
21392;SDS011;10857;52.228;21.026;2023-01-28T15:45:16;35.17;;;17.47;;
21392;SDS011;10857;52.228;21.026;2023-01-28T15:47:44;22.57;;;12.13;;
21392;SDS011;10857;52.228;21.026;2023-01-28T15:50:17;32.23;;;15.40;;
21392;SDS011;10857;52.228;21.026;2023-01-28T15:52:45;26.60;;;14.43;;
21392;SDS011;10857;52.228;21.026;2023-01-28T16:00:47;26.63;;;13.80;;
21392;SDS011;10857;52.228;21.026;2023-01-28T16:03:17;11.77;;;6.73;;
21392;SDS011;10857;52.228;21.026;2023-01-28T16:05:55;14.67;;;6.80;;
21392;SDS011;10857;52.228;21.026;2023-01-28T16:09:12;11.37;;;6.37;;
21392;SDS011;10857;52.228;21.026;2023-01-28T16:11:20;11.40;;;6.87;;
21392;SDS011;10857;52.228;21.026;2023-01-28T16:13:50;19.63;;;10.87;;
21392;SDS011;10857;52.228;21.026;2023-01-28T16:16:31;18.57;;;10.40;;
21392;SDS011;10857;52.228;21.026;2023-01-28T16:19:01;14.77;;;8.20;;
21392;SDS011;10857;52.228;21.026;2023-01-28T16:21:31;16.20;;;7.90;;
21392;SDS011;10857;52.228;21.026;2023-01-28T16:26:57;24.27;;;11.93;;
21392;SDS011;10857;52.228;21.026;2023-01-28T16:29:25;19.77;;;10.63;;
21392;SDS011;10857;52.228;21.026;2023-01-28T16:31:56;19.37;;;9.57;;
21392;SDS011;10857;52.228;21.026;2023-01-28T16:34:26;13.63;;;7.60;;
21392;SDS011;10857;52.228;21.026;2023-01-28T16:36:57;11.83;;;6.50;;